MDT,Max TemperatureF,Mean TemperatureF,Min TemperatureF,Max Dew PointF,MeanDew PointF,Min DewpointF,Max Humidity, Mean Humidity, Min Humidity, Max Sea Level PressureIn, Mean Sea Level PressureIn, Min Sea Level PressureIn, Max VisibilityMiles, Mean VisibilityMiles, Min VisibilityMiles, Max Wind SpeedMPH, Mean Wind SpeedMPH, Max Gust SpeedMPH,PrecipitationIn, CloudCover, Events, WindDirDegrees
2013-7-1,85,76,66,62,57,51,86,58,32,30.25,30.19,30.10,10,10,7,25,12,39,0.05,4,Rain-Thunderstorm,107
2013-7-2,86,74,62,58,50,43,79,47,23,30.28,30.21,30.10,10,10,10,20,6,33,0.00,1,Rain-Thunderstorm,126
2013-7-3,90,77,64,56,50,43,69,40,22,30.21,30.09,29.96,10,10,10,18,7,23,0.00,1,Rain-Thunderstorm,97
2013-7-4,95,80,64,55,50,47,70,38,21,30.07,29.99,29.91,10,10,10,16,5,20,0.00,0,Thunderstorm,198
2013-7-5,98,82,66,52,47,39,58,32,13,30.04,29.97,29.87,10,10,10,14,6,20,0.00,0,Thunderstorm,277
2013-7-6,99,85,71,56,50,44,56,30,15,30.01,29.95,29.88,10,10,10,18,9,28,0.00,1,Rain-Thunderstorm,309
2013-7-7,100,87,74,56,50,44,52,29,15,30.06,30.00,29.93,10,10,10,21,8,26,0.00,1,,57
2013-7-8,97,86,74,60,51,42,55,32,15,30.16,30.11,30.04,10,10,10,18,7,24,0.00,2,Rain-Thunderstorm,123
2013-7-9,97,85,73,55,51,44,51,32,19,30.22,30.14,30.03,10,10,7,13,5,17,0.00,2,,105
2013-7-10,96,84,73,58,53,48,57,34,21,30.20,30.12,30.02,10,10,7,15,7,20,0.00,1,,149
2013-7-11,96,84,72,62,55,49,70,40,20,30.15,30.08,30.02,10,10,10,23,9,29,0.00,2,Thunderstorm,63
2013-7-12,96,83,70,61,54,46,68,41,18,30.12,30.06,29.97,10,10,10,18,5,25,0.00,2,Rain-Thunderstorm,350
2013-7-13,97,84,70,58,51,43,61,35,16,30.14,30.07,29.99,10,10,10,13,7,20,0.00,1,,131
2013-7-14,99,86,73,65,47,43,56,27,15,30.11,30.03,29.92,10,10,10,18,5,24,0.00,1,Rain-Thunderstorm,145
2013-7-15,83,75,67,65,57,50,81,55,40,30.17,30.08,30.02,10,10,4,17,8,21,0.13,4,Rain-Thunderstorm,84
2013-7-16,82,72,61,58,50,44,85,49,26,30.23,30.17,30.12,10,10,10,13,7,17,0.00,4,,123
2013-7-17,82,74,65,58,53,48,69,52,30,30.29,30.25,30.21,10,10,7,25,9,34,0.00,2,Thunderstorm,102
2013-7-18,72,66,61,65,63,58,98,89,70,30.29,30.23,30.15,10,10,4,13,6,17,0.25,7,Rain,82
2013-7-19,83,74,65,65,62,57,94,69,43,30.21,30.13,30.04,10,10,10,14,3,18,0.01,4,,140
2013-7-20,89,78,66,64,61,54,88,62,31,30.11,30.06,29.96,10,10,10,16,5,28,0.00,3,Thunderstorm,126
2013-7-21,91,78,65,64,59,51,88,58,26,30.09,30.03,29.95,10,10,10,24,6,30,0.00,2,Rain-Thunderstorm,213
2013-7-22,93,79,65,64,60,54,90,59,27,30.10,30.05,29.97,10,10,7,22,5,31,0.00,1,Rain-Thunderstorm,225
2013-7-23,94,80,66,67,61,53,90,64,25,30.11,30.06,29.95,10,10,1,25,5,41,0.33,2,Rain-Thunderstorm,168
2013-7-24,90,78,67,66,62,56,93,65,32,30.21,30.10,30.03,10,10,5,20,5,25,0.10,1,Rain-Thunderstorm,215
2013-7-25,83,74,65,66,63,61,93,71,46,30.25,30.19,30.14,10,10,10,13,6,18,0.10,4,Rain-Thunderstorm,275
2013-7-26,90,79,68,68,65,59,93,72,36,30.26,30.21,30.15,10,10,0,31,6,46,1.11,3,Rain-Thunderstorm,270
2013-7-27,83,74,64,66,63,60,94,71,47,30.28,30.19,30.08,10,10,10,15,6,22,0.06,4,Rain-Thunderstorm,83
2013-7-28,85,75,65,68,63,57,97,68,38,30.11,30.05,29.99,10,10,2,13,4,16,0.23,2,Rain-Thunderstorm,170
2013-7-29,93,80,66,65,56,46,90,49,20,30.16,30.10,30.05,10,10,10,14,5,23,0.00,2,,293
2013-7-30,97,83,69,59,53,41,66,39,15,30.26,30.20,30.15,10,10,10,16,8,20,0.00,1,Thunderstorm,27
2013-7-31,96,83,70,62,54,43,67,39,17,30.28,30.21,30.13,10,10,7,16,4,22,0.02,1,Rain-Thunderstorm,258